Time,TemperatureF,DewpointF,PressureIn,WindDirection,WindDirectionDegrees,WindSpeedMPH,WindSpeedGustMPH,Humidity,HourlyPrecipIn,Conditions,Clouds,dailyrainin,SolarRadiationWatts/m^2,SoftwareType,DateUTC
2013-06-22 10:02:00,69.0,69.0,29.90,North,-999,-999.0,-999.0,100,-99.99,,,-99.99,1420.000000,,2013-06-22 15:02:00,
2013-06-22 10:12:00,69.0,69.0,29.90,North,-999,-999.0,-999.0,100,-99.99,,,-99.99,1420.000000,,2013-06-22 15:12:00,
2013-06-22 10:22:00,69.0,69.0,29.90,North,-999,-999.0,-999.0,100,-99.99,,,-99.99,1420.000000,,2013-06-22 15:22:00,
2013-06-22 10:34:00,69.0,69.0,29.90,North,-999,-999.0,-999.0,100,-99.99,,,-99.99,1420.000000,,2013-06-22 15:34:00,
2013-06-22 10:43:00,70.0,70.0,29.90,North,-999,-999.0,-999.0,100,-99.99,,,-99.99,1420.000000,,2013-06-22 15:43:00,
2013-06-22 10:53:00,70.0,70.0,29.90,North,-999,-999.0,-999.0,100,-99.99,,,-99.99,1420.000000,,2013-06-22 15:53:00,
2013-06-22 11:02:00,71.0,70.0,29.90,North,-999,-999.0,-999.0,98,-99.99,,,-99.99,1420.000000,,2013-06-22 16:02:00,
2013-06-22 11:12:00,73.0,71.0,29.90,North,-999,-999.0,-999.0,93,-99.99,,,-99.99,1420.000000,,2013-06-22 16:12:00,
2013-06-22 11:22:00,74.0,71.0,29.87,North,-999,-999.0,-999.0,89,-99.99,,,-99.99,1420.000000,,2013-06-22 16:22:00,
2013-06-22 11:34:00,77.0,71.0,29.87,North,-999,-999.0,-999.0,81,-99.99,,,-99.99,1420.000000,,2013-06-22 16:34:00,
2013-06-22 12:11:00,79.0,70.0,29.90,North,-999,-999.0,-999.0,75,-99.99,,,-99.99,1420.000000,,2013-06-22 17:11:00,
2013-06-22 12:43:00,81.0,69.0,29.87,North,-999,-999.0,-999.0,67,-99.99,,,-99.99,1420.000000,,2013-06-22 17:43:00,
2013-06-22 12:52:00,81.0,69.0,29.87,North,-999,-999.0,-999.0,67,-99.99,,,-99.99,1420.000000,,2013-06-22 17:52:00,
2013-06-22 13:02:00,81.0,69.0,29.87,North,-999,-999.0,-999.0,67,-99.99,,,-99.99,1420.000000,,2013-06-22 18:02:00,
2013-06-22 13:23:00,84.0,70.0,29.84,North,-999,-999.0,-999.0,63,-99.99,,,-99.99,1420.000000,,2013-06-22 18:23:00,
2013-06-22 13:34:00,83.0,69.0,29.84,North,-999,-999.0,-999.0,63,-99.99,,,-99.99,1420.000000,,2013-06-22 18:34:00,
2013-06-22 13:43:00,83.0,70.0,29.84,North,-999,-999.0,-999.0,64,-99.99,,,-99.99,1420.000000,,2013-06-22 18:43:00,
2013-06-22 13:52:00,84.0,70.0,29.84,North,-999,-999.0,-999.0,63,-99.99,,,-99.99,1420.000000,,2013-06-22 18:52:00,
2013-06-22 14:01:00,84.0,70.0,29.84,North,-999,-999.0,-999.0,62,-99.99,,,-99.99,1420.000000,,2013-06-22 19:01:00,
2013-06-22 14:11:00,85.0,70.0,29.84,North,-999,-999.0,-999.0,62,-99.99,,,-99.99,1420.000000,,2013-06-22 19:11:00,
2013-06-22 14:43:00,87.0,72.0,29.84,North,-999,-999.0,-999.0,61,-99.99,,,-99.99,1420.000000,,2013-06-22 19:43:00,
2013-06-22 14:52:00,86.0,71.0,29.84,North,-999,-999.0,-999.0,61,-99.99,,,-99.99,1420.000000,,2013-06-22 19:52:00,
2013-06-22 15:02:00,87.0,72.0,29.84,North,-999,-999.0,-999.0,61,-99.99,,,-99.99,1420.000000,,2013-06-22 20:02:00,
2013-06-22 15:33:00,87.0,71.0,29.84,North,-999,-999.0,-999.0,59,-99.99,,,-99.99,1420.000000,,2013-06-22 20:33:00,
2013-06-22 15:43:00,87.0,71.0,29.84,North,-999,-999.0,-999.0,60,-99.99,,,-99.99,1420.000000,,2013-06-22 20:43:00,
2013-06-22 15:53:00,88.0,72.0,29.84,North,-999,-999.0,-999.0,60,-99.99,,,-99.99,1420.000000,,2013-06-22 20:53:00,
2013-06-22 16:01:00,88.0,72.0,29.84,North,-999,-999.0,-999.0,60,-99.99,,,-99.99,1420.000000,,2013-06-22 21:01:00,
2013-06-22 16:11:00,87.0,72.0,29.84,North,-999,-999.0,-999.0,61,-99.99,,,-99.99,1420.000000,,2013-06-22 21:11:00,
2013-06-22 16:22:00,86.0,71.0,29.84,North,-999,-999.0,-999.0,61,-99.99,,,-99.99,1420.000000,,2013-06-22 21:22:00,
2013-06-22 16:34:00,86.0,71.0,29.84,North,-999,-999.0,-999.0,62,-99.99,,,-99.99,1420.000000,,2013-06-22 21:34:00,
2013-06-22 16:43:00,87.0,72.0,29.84,North,-999,-999.0,-999.0,61,-99.99,,,-99.99,1420.000000,,2013-06-22 21:43:00,
2013-06-22 16:53:00,86.0,71.0,29.84,North,-999,-999.0,-999.0,61,-99.99,,,-99.99,1420.000000,,2013-06-22 21:53:00,
2013-06-22 17:02:00,86.0,72.0,29.84,North,-999,-999.0,-999.0,63,-99.99,,,-99.99,1420.000000,,2013-06-22 22:02:00,
2013-06-22 17:12:00,86.0,72.0,29.84,North,-999,-999.0,-999.0,63,-99.99,,,-99.99,1420.000000,,2013-06-22 22:12:00,
2013-06-22 17:23:00,86.0,72.0,29.84,North,-999,-999.0,-999.0,63,-99.99,,,-99.99,1420.000000,,2013-06-22 22:23:00,
2013-06-22 17:33:00,86.0,71.0,29.84,North,-999,-999.0,-999.0,62,-99.99,,,-99.99,1420.000000,,2013-06-22 22:33:00,
2013-06-22 17:43:00,86.0,72.0,29.84,North,-999,-999.0,-999.0,64,-99.99,,,-99.99,1420.000000,,2013-06-22 22:43:00,
2013-06-22 17:52:00,86.0,72.0,29.84,North,-999,-999.0,-999.0,64,-99.99,,,-99.99,1420.000000,,2013-06-22 22:52:00,
2013-06-22 18:01:00,86.0,72.0,29.84,North,-999,-999.0,-999.0,64,-99.99,,,-99.99,1420.000000,,2013-06-22 23:01:00,
2013-06-22 18:11:00,86.0,72.0,29.81,North,-999,-999.0,-999.0,63,-99.99,,,-99.99,1420.000000,,2013-06-22 23:11:00,
2013-06-22 18:22:00,86.0,72.0,29.81,North,-999,-999.0,-999.0,63,-99.99,,,-99.99,1420.000000,,2013-06-22 23:22:00,
2013-06-22 18:34:00,84.0,71.0,29.81,North,-999,-999.0,-999.0,65,-99.99,,,-99.99,1420.000000,,2013-06-22 23:34:00,
2013-06-22 18:43:00,84.0,71.0,29.78,North,-999,-999.0,-999.0,65,-99.99,,,-99.99,1420.000000,,2013-06-22 23:43:00,
2013-06-22 18:52:00,83.0,70.0,29.78,North,-999,-999.0,-999.0,66,-99.99,,,-99.99,1420.000000,,2013-06-22 23:52:00,
2013-06-22 19:01:00,82.0,70.0,29.78,North,-999,-999.0,-999.0,68,-99.99,,,-99.99,1420.000000,,2013-06-23 00:01:00,
2013-06-22 19:11:00,81.0,70.0,29.78,North,-999,-999.0,-999.0,70,-99.99,,,-99.99,1420.000000,,2013-06-23 00:11:00,
2013-06-22 19:22:00,80.0,70.0,29.78,North,-999,-999.0,-999.0,71,-99.99,,,-99.99,1420.000000,,2013-06-23 00:22:00,
2013-06-22 19:33:00,80.0,70.0,29.78,North,-999,-999.0,-999.0,71,-99.99,,,-99.99,1420.000000,,2013-06-23 00:33:00,
2013-06-22 19:42:00,80.0,70.0,29.78,North,-999,-999.0,-999.0,71,-99.99,,,-99.99,1420.000000,,2013-06-23 00:42:00,
2013-06-22 19:53:00,80.0,70.0,29.78,North,-999,-999.0,-999.0,71,-99.99,,,-99.99,1420.000000,,2013-06-23 00:53:00,
2013-06-22 20:01:00,80.0,70.0,29.78,North,-999,-999.0,-999.0,71,-99.99,,,-99.99,1420.000000,,2013-06-23 01:01:00,
2013-06-22 20:11:00,73.0,67.0,29.84,North,-999,-999.0,-999.0,81,-99.99,,,-99.99,1420.000000,,2013-06-23 01:11:00,
2013-06-22 20:22:00,73.0,67.0,29.84,North,-999,-999.0,-999.0,81,-99.99,,,-99.99,1420.000000,,2013-06-23 01:22:00,
2013-06-22 20:32:00,73.0,67.0,29.84,North,-999,-999.0,-999.0,81,-99.99,,,-99.99,1420.000000,,2013-06-23 01:32:00,
2013-06-22 21:11:00,65.0,64.0,29.81,North,-999,-999.0,-999.0,98,-99.99,,,-99.99,1420.000000,,2013-06-23 02:11:00,
2013-06-22 21:21:00,65.0,64.0,29.81,North,-999,-999.0,-999.0,98,-99.99,,,-99.99,1420.000000,,2013-06-23 02:21:00,
2013-06-22 22:11:00,65.0,65.0,29.84,North,-999,-999.0,-999.0,99,-99.99,,,-99.99,1420.000000,,2013-06-23 03:11:00,
2013-06-22 22:21:00,65.0,65.0,29.84,North,-999,-999.0,-999.0,99,-99.99,,,-99.99,1420.000000,,2013-06-23 03:21:00,
2013-06-22 22:31:00,65.0,65.0,29.84,North,-999,-999.0,-999.0,99,-99.99,,,-99.99,1420.000000,,2013-06-23 03:31:00,
2013-06-22 22:41:00,66.0,66.0,29.84,North,-999,-999.0,-999.0,100,-99.99,,,-99.99,1420.000000,,2013-06-23 03:41:00,
2013-06-22 22:51:00,66.0,66.0,29.84,North,-999,-999.0,-999.0,100,-99.99,,,-99.99,1420.000000,,2013-06-23 03:51:00,
2013-06-22 23:01:00,67.0,67.0,29.84,North,-999,-999.0,-999.0,100,-99.99,,,-99.99,1420.000000,,2013-06-23 04:01:00,
2013-06-22 23:11:00,67.0,67.0,29.84,North,-999,-999.0,-999.0,100,-99.99,,,-99.99,1420.000000,,2013-06-23 04:11:00,
2013-06-22 23:21:00,67.0,67.0,29.84,North,-999,-999.0,-999.0,100,-99.99,,,-99.99,1420.000000,,2013-06-23 04:21:00,
2013-06-22 23:31:00,67.0,67.0,29.84,North,-999,-999.0,-999.0,100,-99.99,,,-99.99,1420.000000,,2013-06-23 04:31:00,
2013-06-22 23:42:00,67.0,67.0,29.84,North,-999,-999.0,-999.0,100,-99.99,,,-99.99,1420.000000,,2013-06-23 04:42:00,
2013-06-22 23:52:00,67.0,67.0,29.84,North,-999,-999.0,-999.0,100,-99.99,,,-99.99,1420.000000,,2013-06-23 04:52:00,